WetterOnline ( http://www.wetteronline.at )

Wetter aktuell Altmark

Aktuelles Wetter: Gardelegen (48m)

6-stündlich | Neueste Meldungen
Ortszeit Temperatur Wetter
Di, 22.01. 1:00 -2.3° C bewölkt
Mo, 21.01. 19:00 -1.8° C bedeckt
Mo, 21.01. 13:00 -2.6° C wolkenlos
Mo, 21.01. 7:00 -6.4° C bedeckt
Mo, 21.01. 1:00 -5.1° C bedeckt
So, 20.01. 19:00 -4.6° C fast wolkenlos
So, 20.01. 13:00 -2.0° C fast wolkenlos
So, 20.01. 7:00 -8.1° C wolkenlos
Ortszeit Temperatur Wetter
Di, 22.01. 3:00 -2.7° C bewölkt
Di, 22.01. 2:50 -2.7° C bewölkt
Di, 22.01. 2:40 -2.6° C bewölkt
Di, 22.01. 2:30 -2.5° C bewölkt
Di, 22.01. 2:20 -2.5° C bewölkt
Di, 22.01. 2:10 -2.4° C bewölkt
Di, 22.01. 2:00 -2.2° C bewölkt
Di, 22.01. 1:30 -2.3° C bedeckt
Di, 22.01. 1:00 -2.3° C bewölkt
Di, 22.01. 0:30 -2.0° C bedeckt
Di, 22.01. 0:00 -2.7° C wolkig
Ortszeit Relative Feuchte Sichtweite
Di, 22.01. 1:00 79% 10 km
Mo, 21.01. 19:00 80% 9 km
Mo, 21.01. 13:00 85% 6 km
Mo, 21.01. 7:00 93% 3.3 km
Mo, 21.01. 1:00 96% 1.1 km
So, 20.01. 19:00 93% 5.0 km
So, 20.01. 13:00 85% 4.5 km
So, 20.01. 7:00 92% 5.0 km
Ortszeit Relative Feuchte Sichtweite
Di, 22.01. 3:00 81% 9 km
Di, 22.01. 2:50 81% -
Di, 22.01. 2:40 81% -
Di, 22.01. 2:30 79% 9 km
Di, 22.01. 2:20 79% -
Di, 22.01. 2:10 80% -
Di, 22.01. 2:00 79% 9 km
Di, 22.01. 1:30 79% 10 km
Di, 22.01. 1:00 79% 10 km
Di, 22.01. 0:30 78% 9 km
Di, 22.01. 0:00 82% 9 km
Ortszeit Niederschlagsmenge Niederschlagsart
Di, 22.01. 1:00 0.1 l/m2 in 6 Std. Schnee
Mo, 21.01. 19:00 0.0 l/m2 in 12 Std. -
Mo, 21.01. 13:00 0.0 l/m2 in 6 Std. -
Mo, 21.01. 7:00 0.1 l/m2 in 12 Std. Schnee
Mo, 21.01. 1:00 0.1 l/m2 in 6 Std. Schnee
So, 20.01. 19:00 0.0 l/m2 in 12 Std. -
So, 20.01. 13:00 0.0 l/m2 in 6 Std. -
So, 20.01. 7:00 0.0 l/m2 in 12 Std. -
Ortszeit Niederschlagsmenge Niederschlagsart
Di, 22.01. 3:00 0.0 l/m2 in 1 Std. -
Di, 22.01. 2:50 keine Meldung -
Di, 22.01. 2:40 keine Meldung -
Di, 22.01. 2:30 0.0 l/m2 in 1 Std. -
Di, 22.01. 2:20 keine Meldung -
Di, 22.01. 2:10 keine Meldung -
Di, 22.01. 2:00 0.0 l/m2 in 1 Std. -
Di, 22.01. 1:30 0.0 l/m2 in 1 Std. -
Di, 22.01. 1:00 0.0 l/m2 in 1 Std. Schnee
Di, 22.01. 0:30 0.0 l/m2 in 1 Std. -
Di, 22.01. 0:00 0.0 l/m2 in 1 Std. -
Ortszeit Stärke Spitze Richtung
km/h Bft. km/h Grad Sektor
Di, 22.01. 1:00 7 2 14 180° S
Mo, 21.01. 19:00 7 2 18 200° S
Mo, 21.01. 13:00 7 2 18 250° W
Mo, 21.01. 7:00 7 2 14 200° S
Mo, 21.01. 1:00 4 1 11 140° SO
So, 20.01. 19:00 2 1 15 50° NO
So, 20.01. 13:00 4 1 11 350° N
So, 20.01. 7:00 0 0 4 - -
Ortszeit Stärke Spitze Richtung
km/h Bft. km/h Grad Sektor
Di, 22.01. 3:00 7 2 11 180° S
Di, 22.01. 2:50 7 2 - 180° S
Di, 22.01. 2:40 7 2 - 180° S
Di, 22.01. 2:30 7 2 11 190° S
Di, 22.01. 2:20 7 2 - 190° S
Di, 22.01. 2:10 9 2 - 190° S
Di, 22.01. 2:00 7 2 11 190° S
Di, 22.01. 1:30 7 2 11 200° S
Di, 22.01. 1:00 7 2 11 180° S
Di, 22.01. 0:30 7 2 11 200° S
Di, 22.01. 0:00 7 2 11 210° SW
Ortszeit Untergrenze Bedeckung Gattung
total tief tief mittel hoch
Di, 22.01. 1:00 1230 m 7/8 7/8 - - -
Mo, 21.01. 19:00 1290 m 8/8 8/8 - - -
Mo, 21.01. 13:00 - 0/8 0/8 - - -
Mo, 21.01. 7:00 30 m 8/8 8/8 - - -
Mo, 21.01. 1:00 <30 m 8/8 8/8 - - -
So, 20.01. 19:00 <30 m 0/8 0/8 - - -
So, 20.01. 13:00 840 m 1/8 1/8 - - -
So, 20.01. 7:00 - 0/8 0/8 - - -
Ortszeit Bedeckungsgrad in Achtel und Wolkenuntergrenze
Di, 22.01. 3:00 7(1170m)
Di, 22.01. 2:50 7(1170m)
Di, 22.01. 2:40 7(1170m)
Di, 22.01. 2:30 2(300m) 4(630m) 7(1200m)
Di, 22.01. 2:20 2(300m) 4(630m) 7(1200m)
Di, 22.01. 2:10 4(300m) 7(630m) 7(1200m)
Di, 22.01. 2:00 7(270m) 7(360m) 7(1200m)
Di, 22.01. 1:30 5(300m) 8(1200m)
Di, 22.01. 1:00 7(1230m)
Di, 22.01. 0:30 8(1200m)
Di, 22.01. 0:00 6(1290m)
Ortszeit Luftdruck NN (hPa) Tendenz (hPa in 3 Std.)
Di, 22.01. 1:00 1018 - 0,9
Mo, 21.01. 19:00 1019 - 1,1
Mo, 21.01. 13:00 1023 - 1,2
Mo, 21.01. 7:00 1024 - 0,5
Mo, 21.01. 1:00 1025 + 0,7
So, 20.01. 19:00 1022 + 1,3
So, 20.01. 13:00 1020 + 0,6
So, 20.01. 7:00 1018 + 0,2
Ortszeit Luftdruck NN (hPa) Tendenz (hPa in 3 Std.)
Di, 22.01. 3:00 1017 - 1,2
Di, 22.01. 2:50 1017 keine Meldung
Di, 22.01. 2:40 1017 keine Meldung
Di, 22.01. 2:30 1017 - 1,2
Di, 22.01. 2:20 1017 keine Meldung
Di, 22.01. 2:10 1017 keine Meldung
Di, 22.01. 2:00 1017 - 1,3
Di, 22.01. 1:30 1017 - 1,1
Di, 22.01. 1:00 1018 - 0,9
Di, 22.01. 0:30 1018 - 1,0
Di, 22.01. 0:00 1018 - 1,1
Ortszeit Schneehöhe (cm)
Di, 22.01. 1:00 0
Mo, 21.01. 19:00 0
Mo, 21.01. 13:00 0
Mo, 21.01. 7:00 0
Mo, 21.01. 1:00 0
So, 20.01. 19:00 0
So, 20.01. 13:00 0
So, 20.01. 7:00 0
Ortszeit Schneehöhe (cm)
Di, 22.01. 3:00 0
Di, 22.01. 2:50 0
Di, 22.01. 2:40 0
Di, 22.01. 2:30 0
Di, 22.01. 2:20 0
Di, 22.01. 2:10 0
Di, 22.01. 2:00 0
Di, 22.01. 1:30 0
Di, 22.01. 1:00 0
Di, 22.01. 0:30 0
Di, 22.01. 0:00 0
Link zu dieser Seite / Seite empfehlen

Das Wetter in ...